createdAt,value
2023-03-17T00:00:35.021Z,82.5
2023-03-17T00:01:44.194Z,83.5
2023-03-17T00:04:02.561Z,82.5
2023-03-17T00:05:11.718Z,83.5
2023-03-17T00:06:20.890Z,82.5
2023-03-17T00:07:30.067Z,80.5
2023-03-17T00:08:39.241Z,82
2023-03-17T00:09:48.466Z,83.5
2023-03-17T00:10:57.604Z,82
2023-03-17T00:12:05.785Z,80.5
2023-03-17T00:13:14.932Z,79.5
2023-03-17T00:14:24.115Z,79.5
2023-03-17T00:15:33.287Z,79
2023-03-17T00:16:42.450Z,80.5
2023-03-17T00:17:51.652Z,79.5
2023-03-17T00:19:00.802Z,79
2023-03-17T00:20:09.965Z,81.5
2023-03-17T00:21:18.169Z,80
2023-03-17T00:22:26.436Z,78.5
2023-03-17T00:23:34.595Z,79
2023-03-17T00:24:42.731Z,82
2023-03-17T00:25:51.962Z,80
2023-03-17T00:27:01.128Z,78.5
2023-03-17T00:28:10.262Z,81
2023-03-17T00:29:19.430Z,78.5
2023-03-17T00:30:28.600Z,80.5
2023-03-17T00:31:37.768Z,80
2023-03-17T00:32:46.939Z,79
2023-03-17T00:33:56.155Z,80
2023-03-17T00:35:05.294Z,79.5
2023-03-17T00:36:14.468Z,78.5
2023-03-17T00:37:23.650Z,78
2023-03-17T00:38:32.833Z,81.5
2023-03-17T00:39:40.992Z,79.5
2023-03-17T00:40:50.166Z,80
2023-03-17T00:41:59.389Z,81
2023-03-17T00:43:08.536Z,84
2023-03-17T00:44:17.699Z,84.5
2023-03-17T00:45:26.863Z,82
2023-03-17T00:46:36.049Z,82
2023-03-17T00:47:44.290Z,82.5
2023-03-17T00:48:52.414Z,80.5
2023-03-17T00:50:01.587Z,82.5
2023-03-17T00:51:10.750Z,80
2023-03-17T00:52:18.950Z,79
2023-03-17T00:53:27.149Z,79
2023-03-17T00:54:36.410Z,78
2023-03-17T00:55:45.479Z,81
2023-03-17T00:56:54.722Z,79
2023-03-17T00:58:03.828Z,82
2023-03-17T00:59:13.007Z,83.5
2023-03-17T01:00:22.190Z,83
2023-03-17T01:01:31.341Z,80.5
2023-03-17T01:02:40.519Z,80
2023-03-17T01:03:49.719Z,79.5
2023-03-17T01:04:58.859Z,80
2023-03-17T01:06:08.038Z,81
2023-03-17T01:07:17.227Z,80
2023-03-17T01:08:25.404Z,78.5
2023-03-17T01:09:34.576Z,79.5
2023-03-17T01:10:43.770Z,77.5
2023-03-17T01:11:53.029Z,79.5
2023-03-17T01:13:02.092Z,82
2023-03-17T01:14:11.253Z,80
2023-03-17T01:16:29.622Z,80.5
2023-03-17T01:17:38.774Z,79.5
2023-03-17T01:18:47.952Z,80
2023-03-17T01:19:57.115Z,80.5
2023-03-17T01:21:06.294Z,80.5
2023-03-17T01:22:15.473Z,79.5
2023-03-17T01:23:23.653Z,77.5
2023-03-17T01:24:32.829Z,79
2023-03-17T01:25:41.998Z,79.5
2023-03-17T01:26:51.170Z,81
2023-03-17T01:28:00.346Z,81
2023-03-17T01:29:08.541Z,79.5
2023-03-17T01:30:16.799Z,78.5
2023-03-17T01:31:24.954Z,79
2023-03-17T01:32:33.124Z,77.5
2023-03-17T01:33:42.322Z,80
2023-03-17T01:34:51.448Z,81.5
2023-03-17T01:36:00.635Z,81
2023-03-17T01:37:09.804Z,82.5
2023-03-17T01:38:18.974Z,84
2023-03-17T01:39:28.154Z,81
2023-03-17T01:40:37.456Z,82
2023-03-17T01:41:46.508Z,83.5
2023-03-17T01:42:55.659Z,84.5
2023-03-17T01:44:04.845Z,83
2023-03-17T01:45:14.008Z,85
2023-03-17T01:46:23.181Z,84
2023-03-17T01:47:31.389Z,80
2023-03-17T01:48:40.545Z,79
2023-03-17T01:49:49.719Z,79
2023-03-17T01:52:08.063Z,79
2023-03-17T01:53:17.227Z,79.5
2023-03-17T01:54:26.409Z,80
2023-03-17T01:55:35.575Z,80.5
2023-03-17T01:56:43.781Z,81.5
2023-03-17T01:57:52.005Z,82
2023-03-17T01:59:01.126Z,82
2023-03-17T02:00:09.340Z,81
2023-03-17T02:01:17.519Z,80.5
2023-03-17T02:02:26.686Z,81.5
2023-03-17T02:03:35.856Z,82
2023-03-17T02:04:45.058Z,82
2023-03-17T02:05:54.214Z,84.5
2023-03-17T02:07:03.391Z,85
2023-03-17T02:08:12.539Z,86
2023-03-17T02:09:21.721Z,86
2023-03-17T02:10:30.901Z,83
2023-03-17T02:11:40.060Z,82.5
2023-03-17T02:12:49.234Z,82.5
2023-03-17T02:13:58.413Z,83
2023-03-17T02:15:07.587Z,84
2023-03-17T02:16:15.766Z,88.5
2023-03-17T02:17:24.959Z,88.5
2023-03-17T02:18:34.147Z,90
2023-03-17T02:19:43.293Z,88
2023-03-17T02:20:52.468Z,86
2023-03-17T02:22:01.635Z,85
2023-03-17T02:23:10.811Z,84.5
2023-03-17T02:24:19.992Z,84
2023-03-17T02:25:29.166Z,87.5
2023-03-17T02:26:38.333Z,86
2023-03-17T02:27:47.505Z,87
2023-03-17T02:28:56.705Z,85
2023-03-17T02:30:05.850Z,82
2023-03-17T02:31:14.055Z,80.5
2023-03-17T02:32:22.242Z,81.5
2023-03-17T02:33:31.407Z,85
2023-03-17T02:34:40.586Z,84.5
2023-03-17T02:35:49.747Z,82.5
2023-03-17T02:36:59.018Z,82
2023-03-17T02:38:08.115Z,82
2023-03-17T02:39:17.320Z,82.5
2023-03-17T02:40:26.438Z,82.5
2023-03-17T02:41:35.620Z,85
2023-03-17T02:42:44.795Z,83
2023-03-17T02:43:53.971Z,81
2023-03-17T02:45:03.149Z,80.5
2023-03-17T02:46:12.318Z,81
2023-03-17T02:47:21.518Z,81
2023-03-17T02:48:29.674Z,81.5
2023-03-17T02:49:38.855Z,82
2023-03-17T02:50:48.024Z,82
2023-03-17T02:51:57.285Z,82.5
2023-03-17T02:53:06.356Z,83
2023-03-17T02:54:15.532Z,85.5
2023-03-17T02:55:23.780Z,86.5
2023-03-17T02:56:31.960Z,87.5
2023-03-17T02:57:40.119Z,88.5
2023-03-17T02:58:48.315Z,91
2023-03-17T02:59:57.496Z,89
2023-03-17T03:01:06.656Z,87
2023-03-17T03:02:15.829Z,89
2023-03-17T03:03:24.996Z,88
2023-03-17T03:04:34.188Z,86
2023-03-17T03:05:43.357Z,87
2023-03-17T03:06:52.521Z,86
2023-03-17T03:08:01.695Z,89.5
2023-03-17T03:09:10.861Z,90.5
2023-03-17T03:10:20.137Z,87.5
2023-03-17T03:11:29.275Z,85.5
2023-03-17T03:12:38.381Z,85
2023-03-17T03:13:46.577Z,84
2023-03-17T03:14:55.743Z,87
2023-03-17T03:16:04.945Z,86
2023-03-17T03:17:14.114Z,83
2023-03-17T03:18:23.261Z,82.5
2023-03-17T03:19:32.439Z,83
2023-03-17T03:20:41.612Z,83.5
2023-03-17T03:21:50.785Z,83
2023-03-17T03:22:58.985Z,84.5
2023-03-17T03:24:07.197Z,85.5
2023-03-17T03:25:16.337Z,86
2023-03-17T03:26:25.515Z,86
2023-03-17T03:27:34.752Z,86
2023-03-17T03:28:43.855Z,86.5
2023-03-17T03:29:53.054Z,87
2023-03-17T03:31:02.197Z,88.5
2023-03-17T03:32:11.440Z,89
2023-03-17T03:33:20.550Z,88
2023-03-17T03:34:29.713Z,90
2023-03-17T03:35:38.896Z,91
2023-03-17T03:36:48.099Z,91.5
2023-03-17T03:37:57.245Z,91.5
2023-03-17T03:39:05.448Z,90.5
2023-03-17T03:40:14.607Z,91
2023-03-17T03:41:23.779Z,90.5
2023-03-17T03:42:32.976Z,90
2023-03-17T03:43:42.148Z,89.5
2023-03-17T03:44:51.282Z,89
2023-03-17T03:46:00.461Z,89
2023-03-17T03:47:08.655Z,89.5
2023-03-17T03:48:16.833Z,90.5
2023-03-17T03:49:25.033Z,93
2023-03-17T03:50:33.227Z,91
2023-03-17T03:51:42.399Z,91
2023-03-17T03:52:51.718Z,90
2023-03-17T03:54:00.742Z,90
2023-03-17T03:55:08.935Z,90.5
2023-03-17T03:56:18.166Z,92
2023-03-17T03:57:26.368Z,92.5
2023-03-17T03:58:35.500Z,93.5
2023-03-17T03:59:44.652Z,94.5
2023-03-17T04:00:53.830Z,94.5
2023-03-17T04:02:02.987Z,92.5
2023-03-17T04:03:12.157Z,91.5
2023-03-17T04:04:21.334Z,91
2023-03-17T04:05:30.504Z,87
2023-03-17T04:06:39.687Z,86
2023-03-17T04:07:48.853Z,85.5
2023-03-17T04:10:07.195Z,89.5
2023-03-17T04:11:16.369Z,88
2023-03-17T04:12:24.577Z,88
2023-03-17T04:13:33.740Z,88.5
2023-03-17T04:14:42.967Z,87
2023-03-17T04:15:52.070Z,89.5
2023-03-17T04:17:01.258Z,88.5
2023-03-17T04:18:10.427Z,88.5
2023-03-17T04:19:19.596Z,90.5
2023-03-17T04:20:27.831Z,88
2023-03-17T04:21:36.011Z,87
2023-03-17T04:22:45.154Z,88.5
2023-03-17T04:23:53.383Z,90.5
2023-03-17T04:25:01.551Z,89
2023-03-17T04:26:10.704Z,90
2023-03-17T04:27:19.902Z,91
2023-03-17T04:28:29.057Z,94.5
2023-03-17T04:29:38.220Z,93.5
2023-03-17T04:30:47.553Z,92
2023-03-17T04:31:56.583Z,90.5
2023-03-17T04:33:05.757Z,88.5
2023-03-17T04:34:14.925Z,87
2023-03-17T04:35:24.092Z,86.5
2023-03-17T04:36:33.268Z,86.5
2023-03-17T04:37:42.438Z,86.5
2023-03-17T04:38:51.610Z,87
2023-03-17T04:39:59.796Z,87.5
2023-03-17T04:41:09.023Z,90.5
2023-03-17T04:42:18.140Z,94.5
2023-03-17T04:43:27.311Z,94.5
2023-03-17T04:44:36.486Z,94
2023-03-17T04:45:45.651Z,95
2023-03-17T04:46:54.828Z,94
2023-03-17T04:48:03.037Z,92.5
2023-03-17T04:49:11.222Z,92
2023-03-17T04:50:19.391Z,91.5
2023-03-17T04:51:27.763Z,91.5
2023-03-17T04:52:36.779Z,88.5
2023-03-17T04:53:45.996Z,89
2023-03-17T04:54:55.103Z,90
2023-03-17T04:56:04.300Z,89
2023-03-17T04:57:13.467Z,88
2023-03-17T04:58:22.638Z,88
2023-03-17T04:59:31.808Z,89.5
2023-03-17T05:00:40.985Z,92
2023-03-17T05:01:50.221Z,90.5
2023-03-17T05:02:59.342Z,93
2023-03-17T05:04:08.696Z,91.5
2023-03-17T05:05:17.664Z,91.5
2023-03-17T05:06:25.861Z,89
2023-03-17T05:07:35.038Z,88.5
2023-03-17T05:08:44.208Z,88.5
2023-03-17T05:09:53.391Z,89.5
2023-03-17T05:11:02.574Z,90
2023-03-17T05:12:11.725Z,89
2023-03-17T05:13:20.916Z,88.5
2023-03-17T05:14:29.103Z,90
2023-03-17T05:15:37.284Z,91.5
2023-03-17T05:16:45.479Z,91.5
2023-03-17T05:17:53.655Z,93
2023-03-17T05:19:02.836Z,93.5
2023-03-17T05:20:12.062Z,92
2023-03-17T05:21:21.241Z,92
2023-03-17T05:22:30.352Z,92
2023-03-17T05:23:39.522Z,90.5
2023-03-17T05:24:48.695Z,89
2023-03-17T05:25:57.876Z,86.5
2023-03-17T05:27:07.081Z,86.5
2023-03-17T05:28:16.283Z,86
2023-03-17T05:29:25.412Z,86.5
2023-03-17T05:30:34.561Z,88
2023-03-17T05:31:43.737Z,89.5
2023-03-17T05:32:51.935Z,91.5
2023-03-17T05:34:01.098Z,92
2023-03-17T05:35:10.268Z,90.5
2023-03-17T05:36:19.441Z,89.5
2023-03-17T05:37:28.646Z,88
2023-03-17T05:38:37.929Z,86.5
2023-03-17T05:39:46.977Z,86.5
2023-03-17T05:40:55.330Z,87.5
2023-03-17T05:42:03.365Z,91
2023-03-17T05:43:12.516Z,91.5
2023-03-17T05:44:20.710Z,92
2023-03-17T05:45:28.916Z,92.5
2023-03-17T05:46:38.067Z,92
2023-03-17T05:47:47.244Z,94
2023-03-17T05:48:56.416Z,94.5
2023-03-17T05:50:05.607Z,93
2023-03-17T05:51:14.765Z,91.5
2023-03-17T05:52:23.945Z,89.5
2023-03-17T05:53:33.181Z,89
2023-03-17T05:54:42.285Z,90.5
2023-03-17T05:55:51.461Z,90
2023-03-17T05:57:00.646Z,89.5
2023-03-17T05:58:09.811Z,90.5
2023-03-17T05:59:18.973Z,92
2023-03-17T06:00:27.203Z,92.5
2023-03-17T06:01:36.361Z,92
2023-03-17T06:02:45.506Z,91
2023-03-17T06:03:54.769Z,90
2023-03-17T06:05:03.870Z,88.5
2023-03-17T06:06:13.028Z,87
2023-03-17T06:07:22.206Z,87.5
2023-03-17T06:08:30.409Z,87.5
2023-03-17T06:09:38.584Z,88
2023-03-17T06:10:46.931Z,89.5
2023-03-17T06:11:55.968Z,90
2023-03-17T06:13:04.146Z,91.5
2023-03-17T06:14:13.325Z,91.5
2023-03-17T06:15:22.595Z,89.5
2023-03-17T06:16:31.689Z,88.5
2023-03-17T06:17:40.840Z,90
2023-03-17T06:18:50.011Z,87
2023-03-17T06:19:59.182Z,85.5
2023-03-17T06:21:08.412Z,84.5
2023-03-17T06:22:17.561Z,84
2023-03-17T06:23:26.698Z,84.5
2023-03-17T06:24:35.895Z,84
2023-03-17T06:25:45.044Z,84
2023-03-17T06:26:54.223Z,84
2023-03-17T06:28:02.411Z,82.5
2023-03-17T06:29:11.569Z,81.5
2023-03-17T06:30:20.760Z,82.5
2023-03-17T06:31:29.929Z,81
2023-03-17T06:32:39.103Z,81.5
2023-03-17T06:33:48.261Z,79
2023-03-17T06:34:57.462Z,79.5
2023-03-17T06:36:06.605Z,80.5
2023-03-17T06:37:15.787Z,78.5
2023-03-17T06:38:24.969Z,79.5
2023-03-17T06:39:34.139Z,79
2023-03-17T06:40:43.319Z,77.5
2023-03-17T06:41:52.489Z,78
2023-03-17T06:43:00.677Z,78
2023-03-17T06:44:09.860Z,78
2023-03-17T06:45:19.135Z,76
2023-03-17T06:46:28.193Z,75.5
2023-03-17T06:47:36.368Z,75.5
2023-03-17T06:48:45.551Z,75.5
2023-03-17T06:49:53.747Z,76.5
2023-03-17T06:51:01.935Z,76.5
2023-03-17T06:52:11.102Z,77
2023-03-17T06:53:20.285Z,75.5
2023-03-17T06:54:28.480Z,75
2023-03-17T06:55:36.819Z,75
2023-03-17T06:56:45.951Z,74
2023-03-17T06:57:55.006Z,70.5
2023-03-17T06:59:04.209Z,71
2023-03-17T07:00:13.470Z,70.5
2023-03-17T07:01:22.526Z,71
2023-03-17T07:02:31.711Z,70
2023-03-17T07:03:40.889Z,71
2023-03-17T07:04:50.050Z,71.5
2023-03-17T07:05:59.242Z,75
2023-03-17T07:07:08.397Z,74.5
2023-03-17T07:08:17.569Z,71.5
2023-03-17T07:09:26.738Z,70
2023-03-17T07:10:34.920Z,69.5
2023-03-17T07:11:44.100Z,69.5
2023-03-17T07:12:53.278Z,69.5
2023-03-17T07:14:02.442Z,70
2023-03-17T07:15:11.613Z,71.5
2023-03-17T07:16:20.787Z,71.5
2023-03-17T07:17:29.964Z,71.5
2023-03-17T07:18:38.164Z,69
2023-03-17T07:19:46.359Z,69.5
2023-03-17T07:20:54.544Z,71.5
2023-03-17T07:22:02.820Z,71
2023-03-17T07:23:11.904Z,71
2023-03-17T07:24:21.069Z,72
2023-03-17T07:25:30.406Z,72
2023-03-17T07:26:39.413Z,71.5
2023-03-17T07:27:48.611Z,70.5
2023-03-17T07:28:57.771Z,70
2023-03-17T07:30:06.998Z,69.5
2023-03-17T07:31:16.096Z,69
2023-03-17T07:32:25.321Z,68
2023-03-17T07:33:34.453Z,67.5
2023-03-17T07:34:43.618Z,66
2023-03-17T07:35:52.805Z,67
2023-03-17T07:37:00.981Z,65.5
2023-03-17T07:38:10.158Z,64.5
2023-03-17T07:39:19.412Z,65
2023-03-17T07:40:28.500Z,63.5
2023-03-17T07:41:37.697Z,63
2023-03-17T07:42:46.855Z,63.5
2023-03-17T07:43:56.011Z,64.5
2023-03-17T07:45:04.197Z,64.5
2023-03-17T07:46:12.398Z,65
2023-03-17T07:47:20.588Z,66
2023-03-17T07:48:28.777Z,63
2023-03-17T07:49:37.959Z,63.5
2023-03-17T07:50:47.200Z,63.5
2023-03-17T07:51:56.296Z,63
2023-03-17T07:53:05.479Z,63
2023-03-17T07:54:14.636Z,64
2023-03-17T07:55:23.866Z,63
2023-03-17T07:56:32.987Z,63.5
2023-03-17T07:57:42.178Z,63.5
2023-03-17T07:58:51.332Z,64.5
2023-03-17T08:00:00.513Z,64.5
2023-03-17T08:01:09.702Z,61
2023-03-17T08:02:18.857Z,60.5
2023-03-17T08:03:27.144Z,63
2023-03-17T08:04:36.407Z,62
2023-03-17T08:05:45.392Z,61
2023-03-17T08:06:54.558Z,62.5
2023-03-17T08:08:03.760Z,62
2023-03-17T08:09:12.917Z,61.5
2023-03-17T08:10:22.072Z,59
2023-03-17T08:11:30.271Z,60.5
2023-03-17T08:12:38.513Z,59
2023-03-17T08:13:46.682Z,57.5
2023-03-17T08:14:54.842Z,60
2023-03-17T08:16:04.113Z,60
2023-03-17T08:17:13.171Z,58
2023-03-17T08:18:22.375Z,59.5
2023-03-17T08:19:31.523Z,59
2023-03-17T08:20:40.697Z,58.5
2023-03-17T08:21:50.006Z,58
2023-03-17T08:22:59.038Z,59
2023-03-17T08:24:08.249Z,58
2023-03-17T08:25:17.518Z,56.5
2023-03-17T08:26:26.560Z,58
2023-03-17T08:27:35.752Z,58.5
2023-03-17T08:28:44.920Z,58.5
2023-03-17T08:29:53.097Z,61.5
2023-03-17T08:31:02.260Z,57.5
2023-03-17T08:32:11.444Z,60.5
2023-03-17T08:33:20.604Z,58.5
2023-03-17T08:34:29.776Z,61
2023-03-17T08:35:38.944Z,61.5
2023-03-17T08:36:48.169Z,57
2023-03-17T08:37:56.325Z,58.5
2023-03-17T08:39:04.640Z,58
2023-03-17T08:40:12.690Z,60.5
2023-03-17T08:41:20.959Z,57.5
2023-03-17T08:42:30.061Z,57
2023-03-17T08:43:39.232Z,57.5
2023-03-17T08:44:48.396Z,58
2023-03-17T08:45:57.576Z,59.5
2023-03-17T08:47:06.773Z,58
2023-03-17T08:48:15.933Z,57.5
2023-03-17T08:49:25.113Z,57
2023-03-17T08:50:34.326Z,57.5
2023-03-17T08:51:43.512Z,57
2023-03-17T08:52:52.603Z,54.5
2023-03-17T08:54:01.795Z,57.5
2023-03-17T08:55:10.973Z,57
2023-03-17T08:56:19.205Z,58
2023-03-17T08:57:28.308Z,56
2023-03-17T08:58:37.505Z,55.5
2023-03-17T08:59:46.657Z,57
2023-03-17T09:02:05.004Z,57
2023-03-17T09:03:14.169Z,57.5
2023-03-17T09:04:23.334Z,58.5
2023-03-17T09:05:31.729Z,55.5
2023-03-17T09:06:39.741Z,55
2023-03-17T09:07:48.947Z,55
2023-03-17T09:08:58.101Z,54.5
2023-03-17T09:10:07.264Z,54.5
2023-03-17T09:12:25.589Z,52.5
2023-03-17T09:13:33.854Z,52
2023-03-17T09:14:41.994Z,53
2023-03-17T09:15:51.155Z,53
2023-03-17T09:18:09.485Z,53
2023-03-17T09:19:18.664Z,55.5
2023-03-17T09:20:27.941Z,54
2023-03-17T09:21:37.106Z,57.5
2023-03-17T09:22:46.193Z,53.5
2023-03-17T09:23:55.342Z,55
2023-03-17T09:25:04.532Z,51
2023-03-17T09:26:13.694Z,52
2023-03-17T09:27:22.880Z,53.5
2023-03-17T09:28:32.052Z,52.5
2023-03-17T09:29:40.216Z,51.5
2023-03-17T09:30:49.378Z,54
2023-03-17T09:31:58.559Z,52.5
2023-03-17T09:33:07.736Z,54
2023-03-17T09:34:16.913Z,53.5
2023-03-17T09:35:26.084Z,52.5
2023-03-17T09:36:35.266Z,53
2023-03-17T09:37:44.436Z,53
2023-03-17T09:38:53.601Z,55.5
2023-03-17T09:40:01.802Z,57
2023-03-17T09:41:09.975Z,56
2023-03-17T09:42:18.352Z,53
2023-03-17T09:43:26.405Z,53.5
2023-03-17T09:44:35.528Z,54
2023-03-17T09:45:44.698Z,55.5
2023-03-17T09:46:53.875Z,53.5
2023-03-17T09:48:03.051Z,54.5
2023-03-17T09:49:12.219Z,54.5
2023-03-17T09:50:21.378Z,55.5
2023-03-17T09:51:30.582Z,55
2023-03-17T09:52:39.737Z,54.5
2023-03-17T09:53:48.957Z,55
2023-03-17T09:54:58.124Z,53.5
2023-03-17T09:56:07.241Z,53
2023-03-17T09:57:16.417Z,54.5
2023-03-17T09:58:24.602Z,51.5
2023-03-17T09:59:33.800Z,52
2023-03-17T10:00:42.971Z,52
2023-03-17T10:01:52.132Z,52
2023-03-17T10:04:10.465Z,52.5
2023-03-17T10:05:19.669Z,51
2023-03-17T10:06:28.862Z,54
2023-03-17T10:07:36.998Z,51
2023-03-17T10:08:45.190Z,51.5
2023-03-17T10:09:54.499Z,51
2023-03-17T10:11:02.671Z,53.5
2023-03-17T10:12:10.970Z,50
2023-03-17T10:13:19.973Z,51
2023-03-17T10:14:29.223Z,52
2023-03-17T10:15:38.393Z,53.5
2023-03-17T10:16:47.452Z,50
2023-03-17T10:17:56.610Z,49.5
2023-03-17T10:19:05.799Z,52
2023-03-17T10:20:14.938Z,51.5
2023-03-17T10:21:24.148Z,51
2023-03-17T10:22:33.304Z,52
2023-03-17T10:23:42.528Z,50.5
2023-03-17T10:24:51.640Z,50.5
2023-03-17T10:26:00.811Z,51.5
2023-03-17T10:27:09.075Z,50
2023-03-17T10:28:18.168Z,51
2023-03-17T10:30:36.628Z,51.5
2023-03-17T10:31:45.837Z,51.5
2023-03-17T10:32:54.860Z,50.5
2023-03-17T10:34:04.038Z,49.5
2023-03-17T10:35:13.225Z,51
2023-03-17T10:36:21.416Z,50
2023-03-17T10:37:29.580Z,49
2023-03-17T10:38:37.790Z,50.5
2023-03-17T10:39:45.984Z,51
2023-03-17T10:40:55.163Z,50
2023-03-17T10:42:04.320Z,50
2023-03-17T10:43:13.615Z,51
2023-03-17T10:44:22.862Z,50.5
2023-03-17T10:45:31.835Z,51
2023-03-17T10:46:41.178Z,49
2023-03-17T10:47:50.192Z,51.5
2023-03-17T10:48:59.356Z,50.5
2023-03-17T10:50:08.662Z,50
2023-03-17T10:51:17.878Z,52.5
2023-03-17T10:52:27.078Z,51.5
2023-03-17T10:53:36.054Z,49
2023-03-17T10:54:44.230Z,50
2023-03-17T10:55:53.549Z,49
2023-03-17T10:57:02.781Z,49.5
2023-03-17T10:58:11.799Z,50
2023-03-17T10:59:21.090Z,48.5
2023-03-17T11:00:30.113Z,49
2023-03-17T11:01:39.405Z,50
2023-03-17T11:02:48.440Z,50.5
2023-03-17T11:03:56.771Z,51.5
2023-03-17T11:05:04.883Z,50
2023-03-17T11:06:14.201Z,49
2023-03-17T11:07:23.295Z,48.5
2023-03-17T11:08:31.548Z,49
2023-03-17T11:09:39.723Z,49
2023-03-17T11:10:48.950Z,50
2023-03-17T11:11:58.071Z,50
2023-03-17T11:13:07.223Z,50.5
2023-03-17T11:14:16.421Z,49.5
2023-03-17T11:15:25.598Z,48
2023-03-17T11:16:34.721Z,49.5
2023-03-17T11:17:43.924Z,49.5
2023-03-17T11:18:53.111Z,48.5
2023-03-17T11:20:02.263Z,48.5
2023-03-17T11:21:11.448Z,50.5
2023-03-17T11:22:20.446Z,49.5
2023-03-17T11:23:29.763Z,51
2023-03-17T11:24:37.958Z,49
2023-03-17T11:25:47.131Z,49
2023-03-17T11:26:56.270Z,50.5
2023-03-17T11:28:05.478Z,48
2023-03-17T11:29:14.531Z,48.5
2023-03-17T11:30:23.818Z,49.5
2023-03-17T11:31:32.992Z,49.5
2023-03-17T11:32:41.113Z,49
2023-03-17T11:33:49.448Z,48.5
2023-03-17T11:34:58.454Z,48.5
2023-03-17T11:36:06.797Z,49
2023-03-17T11:37:15.936Z,48
2023-03-17T11:38:24.114Z,46
2023-03-17T11:39:33.118Z,47.5
2023-03-17T11:40:42.460Z,48
2023-03-17T11:41:51.626Z,48
2023-03-17T11:43:00.807Z,46
2023-03-17T11:44:09.980Z,45.5
2023-03-17T11:45:19.125Z,45.5
2023-03-17T11:46:28.188Z,46
2023-03-17T11:47:37.326Z,48
2023-03-17T11:48:46.685Z,44.5
2023-03-17T11:49:55.889Z,45
2023-03-17T11:51:04.882Z,44.5
2023-03-17T11:52:14.206Z,45
2023-03-17T11:53:22.381Z,46.5
2023-03-17T11:54:31.550Z,48.5
2023-03-17T11:55:40.615Z,49
2023-03-17T11:56:49.921Z,47.5
2023-03-17T11:57:59.054Z,49
2023-03-17T11:59:08.086Z,48
2023-03-17T12:00:16.248Z,48.5
2023-03-17T12:01:24.530Z,47
2023-03-17T12:02:33.782Z,48.5
2023-03-17T12:03:42.892Z,48.5
2023-03-17T12:04:51.149Z,48
2023-03-17T12:07:08.542Z,50
2023-03-17T12:08:17.685Z,49.5
2023-03-17T12:09:27.091Z,48
2023-03-17T12:10:36.033Z,49.5
2023-03-17T12:11:45.181Z,49
2023-03-17T12:12:54.463Z,51
2023-03-17T12:14:03.528Z,49
2023-03-17T12:15:12.713Z,48
2023-03-17T12:16:21.898Z,48.5
2023-03-17T12:17:31.029Z,49
2023-03-17T12:18:40.269Z,50
2023-03-17T12:19:49.429Z,50.5
2023-03-17T12:20:57.648Z,49
2023-03-17T12:22:06.813Z,48.5
2023-03-17T12:23:15.906Z,49.5
2023-03-17T12:24:25.048Z,50
2023-03-17T12:25:34.273Z,48
2023-03-17T12:26:43.447Z,49
2023-03-17T12:27:52.579Z,47
2023-03-17T12:29:01.778Z,50
2023-03-17T12:30:09.988Z,49
2023-03-17T12:31:18.001Z,49
2023-03-17T12:32:27.373Z,48
2023-03-17T12:33:36.362Z,50
2023-03-17T12:34:45.610Z,50.5
2023-03-17T12:35:53.932Z,50
2023-03-17T12:37:01.968Z,49.5
2023-03-17T12:38:11.212Z,50.5
2023-03-17T12:39:20.232Z,51
2023-03-17T12:40:29.420Z,50
2023-03-17T12:41:38.596Z,50
2023-03-17T12:42:47.782Z,48.5
2023-03-17T12:43:56.930Z,49.5
2023-03-17T12:45:06.460Z,49.5
2023-03-17T12:46:15.404Z,49
2023-03-17T12:47:24.491Z,48.5
2023-03-17T12:48:33.680Z,49.5
2023-03-17T12:49:42.809Z,49.5
2023-03-17T12:50:52.025Z,49
2023-03-17T12:52:00.228Z,48.5
2023-03-17T12:53:09.336Z,48
2023-03-17T12:54:18.514Z,48
2023-03-17T12:55:27.663Z,48.5
2023-03-17T12:56:36.958Z,49
2023-03-17T12:57:46.012Z,50
2023-03-17T12:58:55.191Z,50
2023-03-17T13:00:03.398Z,49
2023-03-17T13:01:11.570Z,48
2023-03-17T13:02:19.763Z,49
2023-03-17T13:03:27.967Z,49
2023-03-17T13:04:37.167Z,47.5
2023-03-17T13:05:46.293Z,48.5
2023-03-17T13:06:55.522Z,50.5
2023-03-17T13:08:04.733Z,48
2023-03-17T13:09:13.904Z,48
2023-03-17T13:10:23.146Z,48
2023-03-17T13:11:32.192Z,49
2023-03-17T13:12:41.339Z,49.5
2023-03-17T13:13:50.595Z,50
2023-03-17T13:14:59.721Z,51.5
2023-03-17T13:16:08.840Z,51
2023-03-17T13:17:18.031Z,50
2023-03-17T13:18:26.238Z,51.5
2023-03-17T13:19:35.404Z,50.5
2023-03-17T13:20:44.567Z,50.5
2023-03-17T13:21:53.774Z,52
2023-03-17T13:23:02.927Z,52.5
2023-03-17T13:24:12.067Z,51.5
2023-03-17T13:25:21.314Z,51
2023-03-17T13:26:29.453Z,50
2023-03-17T13:27:37.752Z,49
2023-03-17T13:28:46.791Z,48.5
2023-03-17T13:29:56.032Z,49.5
2023-03-17T13:31:05.130Z,49.5
2023-03-17T13:32:14.322Z,49
2023-03-17T13:33:23.495Z,48.5
2023-03-17T13:34:32.660Z,51
2023-03-17T13:35:41.823Z,49
2023-03-17T13:36:51.004Z,48.5
2023-03-17T13:38:00.183Z,50
2023-03-17T13:39:09.331Z,49
2023-03-17T13:40:18.623Z,50.5
2023-03-17T13:41:27.739Z,51.5
2023-03-17T13:42:35.874Z,48
2023-03-17T13:43:45.062Z,49
2023-03-17T13:44:54.297Z,50.5
2023-03-17T13:46:03.395Z,49.5
2023-03-17T13:47:12.587Z,51
2023-03-17T13:48:21.748Z,51
2023-03-17T13:49:30.948Z,50.5
2023-03-17T13:50:39.102Z,50.5
2023-03-17T13:51:47.298Z,48.5
2023-03-17T13:52:55.484Z,49
2023-03-17T13:54:03.709Z,50
2023-03-17T13:55:11.856Z,48.5
2023-03-17T13:56:20.119Z,48.5
2023-03-17T13:57:29.231Z,49.5
2023-03-17T13:58:38.403Z,49.5
2023-03-17T13:59:47.574Z,49.5
2023-03-17T14:00:56.737Z,49.5
2023-03-17T14:02:05.924Z,48.5
2023-03-17T14:03:15.084Z,49.5
2023-03-17T14:04:24.254Z,50
2023-03-17T14:05:33.428Z,49
2023-03-17T14:06:42.607Z,49
2023-03-17T14:07:51.816Z,49.5
2023-03-17T14:09:00.951Z,51.5
2023-03-17T14:10:10.126Z,51.5
2023-03-17T14:11:18.311Z,50
2023-03-17T14:12:27.503Z,51.5
2023-03-17T14:13:36.674Z,49
2023-03-17T14:14:45.829Z,51.5
2023-03-17T14:15:55.060Z,49.5
2023-03-17T14:17:04.261Z,49
2023-03-17T14:18:13.372Z,49.5
2023-03-17T14:19:21.664Z,51
2023-03-17T14:20:29.869Z,49.5
2023-03-17T14:21:37.916Z,49.5
2023-03-17T14:23:55.336Z,49.5
2023-03-17T14:25:04.451Z,50.5
2023-03-17T14:26:13.625Z,49.5
2023-03-17T14:27:22.791Z,50.5
2023-03-17T14:28:31.972Z,52
2023-03-17T14:29:40.160Z,51
2023-03-17T14:30:49.352Z,50.5
2023-03-17T14:31:58.509Z,52.5
2023-03-17T14:33:07.766Z,52
2023-03-17T14:34:16.949Z,51
2023-03-17T14:35:26.167Z,50
2023-03-17T14:36:35.191Z,50
2023-03-17T14:37:44.379Z,49
2023-03-17T14:38:53.716Z,50
2023-03-17T14:40:02.738Z,50
2023-03-17T14:41:11.945Z,50.5
2023-03-17T14:42:21.115Z,50.5
2023-03-17T14:43:30.325Z,50.5
2023-03-17T14:44:38.432Z,51
2023-03-17T14:45:47.591Z,51.5
2023-03-17T14:46:55.811Z,51
2023-03-17T14:48:04.116Z,50.5
2023-03-17T14:49:13.229Z,50
2023-03-17T14:50:21.332Z,51.5
2023-03-17T14:51:29.515Z,51
2023-03-17T14:52:38.692Z,51.5
2023-03-17T14:53:47.925Z,52
2023-03-17T14:54:57.048Z,51.5
2023-03-17T14:56:06.368Z,52.5
2023-03-17T14:58:24.549Z,51.5
2023-03-17T14:59:33.811Z,53
2023-03-17T15:00:42.974Z,52
2023-03-17T15:01:52.086Z,54.5
2023-03-17T15:03:01.282Z,53
2023-03-17T15:04:10.415Z,53
2023-03-17T15:05:19.669Z,53.5
2023-03-17T15:06:27.800Z,53.5
2023-03-17T15:07:36.956Z,51.5
2023-03-17T15:08:46.239Z,52
2023-03-17T15:09:55.287Z,52
2023-03-17T15:11:04.616Z,52
2023-03-17T15:12:13.630Z,52
2023-03-17T15:13:22.812Z,54
2023-03-17T15:14:32.090Z,52.5
2023-03-17T15:15:40.199Z,54
2023-03-17T15:16:48.373Z,56.5
2023-03-17T15:17:57.532Z,56
2023-03-17T15:19:05.723Z,54.5
2023-03-17T15:20:14.914Z,54.5
2023-03-17T15:21:23.087Z,56
2023-03-17T15:22:32.272Z,56
2023-03-17T15:23:41.529Z,54.5
2023-03-17T15:24:50.846Z,54
2023-03-17T15:25:59.802Z,54.5
2023-03-17T15:27:08.997Z,53.5
2023-03-17T15:28:18.121Z,54
2023-03-17T15:29:27.310Z,53
2023-03-17T15:30:36.470Z,54
2023-03-17T15:31:45.655Z,52
2023-03-17T15:32:54.810Z,52.5
2023-03-17T15:34:04.054Z,52
2023-03-17T15:35:13.220Z,53
2023-03-17T15:36:21.483Z,53.5
2023-03-17T15:37:30.653Z,53.5
2023-03-17T15:38:39.762Z,53
2023-03-17T15:39:48.856Z,53
2023-03-17T15:40:58.055Z,54
2023-03-17T15:42:07.327Z,54.5
2023-03-17T15:44:24.752Z,55
2023-03-17T15:45:33.866Z,54.5
2023-03-17T15:46:42.980Z,56.5
2023-03-17T15:47:51.236Z,56.5
2023-03-17T15:48:59.359Z,56
2023-03-17T15:50:08.540Z,55
2023-03-17T15:51:17.809Z,54.5
2023-03-17T15:52:26.170Z,56
2023-03-17T15:53:34.147Z,54.5
2023-03-17T15:54:43.218Z,55.5
2023-03-17T15:55:52.363Z,56
2023-03-17T15:57:01.593Z,56.5
2023-03-17T15:58:10.917Z,55.5
2023-03-17T15:59:20.071Z,55.5
2023-03-17T16:00:29.049Z,56.5
2023-03-17T16:01:38.340Z,56.5
2023-03-17T16:02:47.442Z,56
2023-03-17T16:03:56.713Z,57
2023-03-17T16:05:05.827Z,57